Time;durP1;ratioP1;P1;durP2;ratioP2;P2;SDS_P1;SDS_P2;PMS_P1;PMS_P2;Temp;Humidity;BMP_temperature;BMP_pressure;BME280_temperature;BME280_humidity;BME280_pressure;Samples;Min_cycle;Max_cycle;Signal;HPM_P1;HPM_P2
2023/07/08 00:02:51;;;;;;;4.93;2.33;;;;;;;17.48;71.96;101341.63;6005388;28;20615;-66
2023/07/08 00:05:47;;;;;;;4.25;2.10;;;;;;;16.76;71.04;101336.53;6010252;28;20109;-67
2023/07/08 00:08:42;;;;;;;4.80;2.30;;;;;;;16.75;72.18;101337.53;6013214;28;20069;-67
2023/07/08 00:11:37;;;;;;;8.03;2.33;;;;;;;15.95;75.46;101307.13;6005049;28;20030;-67
2023/07/08 00:14:32;;;;;;;6.00;2.20;;;;;;;15.90;77.30;101339.69;6005240;28;20043;-67
2023/07/08 00:17:28;;;;;;;5.23;2.37;;;;;;;15.83;78.05;101351.22;6017585;28;20454;-67
2023/07/08 00:20:32;;;;;;;3.73;2.20;;;;;;;16.05;79.18;101337.22;6004718;28;20046;-67
2023/07/08 00:23:27;;;;;;;5.68;2.50;;;;;;;15.99;76.17;101330.69;6002908;28;20019;-67
2023/07/08 00:26:25;;;;;;;5.83;2.10;;;;;;;15.79;78.01;101328.50;6004598;28;20038;-67
2023/07/08 00:29:20;;;;;;;3.70;2.25;;;;;;;16.07;77.20;101340.56;6014809;28;20038;-67
2023/07/08 00:32:15;;;;;;;6.53;2.50;;;;;;;16.53;73.75;101339.06;6004490;28;20038;-67
2023/07/08 00:35:11;;;;;;;3.75;2.22;;;;;;;16.85;70.73;101324.78;6003700;28;20057;-68
2023/07/08 00:38:16;;;;;;;7.77;2.37;;;;;;;16.92;69.95;101339.16;6004681;28;20459;-67
2023/07/08 00:41:38;;;;;;;4.00;2.10;;;;;;;17.08;71.70;101341.78;6003628;28;20027;-67
2023/07/08 00:44:34;;;;;;;6.20;2.72;;;;;;;17.04;70.83;101325.22;6000314;28;20046;-67
2023/07/08 00:47:29;;;;;;;5.40;2.30;;;;;;;17.15;71.74;101340.91;6002985;28;20092;-67
2023/07/08 00:50:24;;;;;;;3.50;2.10;;;;;;;17.29;70.46;101339.34;6002638;28;20477;-67
2023/07/08 00:53:24;;;;;;;3.43;2.17;;;;;;;17.04;69.44;101338.63;6003459;28;20026;-67
2023/07/08 00:56:22;;;;;;;;;;;;;;;17.12;69.46;101329.72;6003748;28;20038;-67
2023/07/08 00:59:25;;;;;;;4.72;2.97;;;;;;;16.84;70.07;101331.16;6006482;28;19981;-67
2023/07/08 01:02:22;;;;;;;4.28;2.47;;;;;;;16.90;71.87;101327.78;5997871;28;20026;-67
2023/07/08 01:05:19;;;;;;;4.78;2.13;;;;;;;16.81;70.84;101328.81;6007493;28;20027;-67
2023/07/08 01:08:14;;;;;;;4.97;2.50;;;;;;;16.81;73.30;101329.66;6002580;28;20040;-67
2023/07/08 01:11:10;;;;;;;4.90;2.07;;;;;;;16.61;71.19;101321.16;6010019;28;20034;-67
2023/07/08 01:14:09;;;;;;;4.85;2.33;;;;;;;16.06;74.17;101344.25;6005238;28;20034;-67
2023/07/08 01:17:05;;;;;;;4.05;2.47;;;;;;;15.46;77.15;101339.09;6002046;28;20573;-67
2023/07/08 01:20:05;;;;;;;5.50;2.40;;;;;;;15.09;79.07;101338.56;6002653;28;20078;-66
2023/07/08 01:23:01;;;;;;;5.38;2.90;;;;;;;14.78;80.82;101327.56;6004070;28;20030;-66
2023/07/08 01:25:56;;;;;;;4.15;2.30;;;;;;;14.48;82.99;101314.72;6006463;28;20129;-67
2023/07/08 01:28:55;;;;;;;5.95;2.50;;;;;;;14.36;84.32;101317.75;6014000;28;20391;-67
2023/07/08 01:31:50;;;;;;;4.70;2.20;;;;;;;14.16;85.77;101315.25;6005713;28;20039;-66
2023/07/08 01:34:59;;;;;;;4.13;2.45;;;;;;;14.34;86.49;101327.75;6001449;28;20095;-67
2023/07/08 01:37:58;;;;;;;4.95;2.28;;;;;;;14.85;85.55;101317.09;6002971;28;20038;-67
2023/07/08 01:40:55;;;;;;;5.10;2.65;;;;;;;15.55;80.46;101315.88;6008854;28;20450;-67
2023/07/08 01:43:51;;;;;;;4.75;3.15;;;;;;;15.68;78.55;101312.75;6001139;28;20383;-67
2023/07/08 01:46:46;;;;;;;4.77;2.80;;;;;;;15.73;75.09;101307.75;6006607;28;20026;-67
2023/07/08 01:49:42;;;;;;;5.57;3.03;;;;;;;15.64;72.53;101282.00;6006988;28;20062;-67
2023/07/08 01:52:38;;;;;;;8.93;3.00;;;;;;;15.57;72.65;101287.19;5999169;28;20042;-66
2023/07/08 01:55:33;;;;;;;6.97;3.00;;;;;;;15.89;71.68;101302.41;6008554;28;20051;-67
2023/07/08 01:58:28;;;;;;;4.97;3.13;;;;;;;15.65;72.76;101283.69;6006471;28;20054;-66
2023/07/08 02:01:24;;;;;;;5.28;2.80;;;;;;;15.92;74.69;101291.41;6004051;28;20030;-65
2023/07/08 02:04:19;;;;;;;7.53;3.57;;;;;;;15.98;71.37;101291.53;6001974;28;20058;-66
2023/07/08 02:07:14;;;;;;;7.50;3.17;;;;;;;16.10;73.42;101294.72;6002615;28;20066;-65
2023/07/08 02:10:09;;;;;;;7.00;3.50;;;;;;;16.14;72.19;101292.56;6002842;28;20756;-66
2023/07/08 02:13:05;;;;;;;5.97;3.00;;;;;;;15.91;72.49;101279.00;6002510;28;20118;-66
2023/07/08 02:16:00;;;;;;;6.30;3.83;;;;;;;15.69;72.01;101280.50;6002169;28;20027;-66
2023/07/08 02:18:55;;;;;;;5.63;3.00;;;;;;;15.59;72.75;101278.97;6002624;28;20545;-66
2023/07/08 02:21:51;;;;;;;7.70;3.17;;;;;;;15.22;73.85;101264.16;6010008;28;20023;-67
2023/07/08 02:24:47;;;;;;;6.88;3.42;;;;;;;15.14;75.33;101274.81;6005571;28;20031;-66
2023/07/08 02:27:43;;;;;;;6.38;3.60;;;;;;;15.04;75.89;101283.94;6007350;28;20482;-66
2023/07/08 02:30:40;;;;;;;6.47;3.30;;;;;;;14.89;76.71;101270.38;6002585;28;20022;-66
2023/07/08 02:33:35;;;;;;;7.10;3.60;;;;;;;15.02;76.67;101281.47;6001791;28;20062;-66
2023/07/08 02:36:33;;;;;;;5.07;3.20;;;;;;;14.92;77.14;101280.72;6003478;28;20051;-66
2023/07/08 02:39:29;;;;;;;7.45;3.40;;;;;;;15.03;76.82;101283.09;6012099;28;20030;-66
2023/07/08 02:42:24;;;;;;;5.50;3.70;;;;;;;14.79;77.35;101280.34;6002075;28;20042;-66
2023/07/08 02:45:19;;;;;;;8.60;3.83;;;;;;;14.83;77.85;101287.03;6006961;28;20018;-67
2023/07/08 02:48:15;;;;;;;7.13;3.60;;;;;;;14.71;78.65;101288.31;6015281;28;20281;-66
2023/07/08 02:51:10;;;;;;;6.03;3.40;;;;;;;14.76;78.44;101283.31;6001959;28;20277;-66
2023/07/08 02:54:05;;;;;;;6.37;3.40;;;;;;;14.81;79.86;101271.16;6003111;28;20040;-66
2023/07/08 02:57:01;;;;;;;6.97;3.70;;;;;;;15.19;80.10;101285.84;6002403;28;20061;-66
2023/07/08 02:59:56;;;;;;;6.07;3.47;;;;;;;15.18;76.42;101275.34;6002329;28;20030;-66
2023/07/08 03:02:51;;;;;;;6.70;3.20;;;;;;;14.83;80.23;101281.69;6002893;28;20035;-66
2023/07/08 03:05:56;;;;;;;7.50;3.65;;;;;;;14.94;78.14;101281.41;6005463;28;20045;-66
2023/07/08 03:08:52;;;;;;;6.75;3.80;;;;;;;14.62;78.75;101268.72;6006333;28;20126;-66
2023/07/08 03:11:47;;;;;;;8.23;3.50;;;;;;;14.62;79.85;101281.25;6006020;28;20478;-66
2023/07/08 03:14:43;;;;;;;7.40;3.83;;;;;;;14.50;80.09;101277.16;6005567;28;20019;-66
2023/07/08 03:17:38;;;;;;;7.97;3.65;;;;;;;14.46;80.32;101254.47;6012619;28;20034;-66
2023/07/08 03:20:36;;;;;;;6.47;3.57;;;;;;;14.84;79.71;101272.66;6010099;28;20045;-66
2023/07/08 03:23:31;;;;;;;7.95;3.53;;;;;;;15.12;80.71;101260.78;6005282;28;20023;-66
2023/07/08 03:26:27;;;;;;;10.20;4.03;;;;;;;15.27;77.94;101266.34;6006626;28;20049;-66
2023/07/08 03:29:22;;;;;;;5.85;3.58;;;;;;;15.28;77.47;101273.34;6006060;28;20320;-67
2023/07/08 03:32:17;;;;;;;6.33;3.87;;;;;;;15.24;77.86;101272.84;6005608;28;20030;-66
2023/07/08 03:35:13;;;;;;;6.57;3.80;;;;;;;14.87;77.96;101251.84;6006732;28;20037;-66
2023/07/08 03:38:08;;;;;;;7.10;3.70;;;;;;;14.79;78.58;101258.97;6005801;28;20022;-66
2023/07/08 03:41:04;;;;;;;5.87;3.60;;;;;;;14.68;78.74;101251.25;6005229;28;20034;-67
2023/07/08 03:43:59;;;;;;;6.95;4.18;;;;;;;14.87;80.51;101261.69;6010337;28;20065;-66
2023/07/08 03:46:55;;;;;;;6.57;3.60;;;;;;;14.95;79.24;101280.41;6005349;28;20034;-66
2023/07/08 03:49:50;;;;;;;7.43;3.60;;;;;;;15.05;79.04;101265.09;6005308;28;20047;-66
2023/07/08 03:52:49;;;;;;;7.60;3.60;;;;;;;15.17;77.66;101255.78;6005454;28;20469;-66
2023/07/08 03:55:44;;;;;;;5.93;3.65;;;;;;;15.04;78.21;101267.94;6006809;28;20030;-66
2023/07/08 03:58:40;;;;;;;9.20;3.97;;;;;;;14.88;78.47;101258.03;6005155;28;20034;-67
2023/07/08 04:01:38;;;;;;;7.75;3.95;;;;;;;14.71;79.16;101266.94;6013215;28;20077;-66
2023/07/08 04:04:35;;;;;;;10.93;4.00;;;;;;;14.81;79.61;101268.50;6004278;28;20043;-66
2023/07/08 04:07:30;;;;;;;5.78;3.63;;;;;;;14.79;80.04;101269.66;6001205;28;20058;-66
2023/07/08 04:10:25;;;;;;;6.37;3.80;;;;;;;15.05;79.06;101269.63;6004773;28;20522;-66
2023/07/08 04:13:21;;;;;;;5.13;3.17;;;;;;;15.14;80.30;101279.31;6005702;28;20027;-66
2023/07/08 04:16:24;;;;;;;7.93;4.17;;;;;;;15.48;79.65;101283.66;6003256;28;20038;-66
2023/07/08 04:19:20;;;;;;;7.05;3.53;;;;;;;15.44;79.58;101262.69;6005409;28;20502;-66
2023/07/08 04:22:15;;;;;;;7.18;4.10;;;;;;;15.36;77.54;101266.19;6004519;28;20086;-66
2023/07/08 04:25:12;;;;;;;5.87;3.70;;;;;;;15.38;78.90;101274.06;6004031;28;20093;-66
2023/07/08 04:28:07;;;;;;;9.02;3.80;;;;;;;15.61;77.63;101274.28;6004695;28;20062;-67
2023/07/08 04:31:03;;;;;;;7.80;4.30;;;;;;;16.23;76.63;101284.34;6004447;28;20112;-66
2023/07/08 04:33:59;;;;;;;7.10;3.80;;;;;;;16.78;72.50;101264.84;6003977;28;20031;-67
2023/07/08 04:36:54;;;;;;;6.10;3.47;;;;;;;17.32;70.12;101281.88;6006368;28;20049;-66
2023/07/08 04:39:49;;;;;;;5.55;3.30;;;;;;;18.11;66.32;101285.03;6004431;28;20026;-67
2023/07/08 04:42:47;;;;;;;8.97;3.77;;;;;;;17.95;67.94;101284.34;6009725;28;20038;-67
2023/07/08 04:45:44;;;;;;;6.70;3.90;;;;;;;17.99;67.11;101270.38;6003303;28;20485;-66
2023/07/08 04:48:40;;;;;;;5.68;3.72;;;;;;;17.81;66.67;101292.16;6004257;28;20026;-66
2023/07/08 04:51:36;;;;;;;7.80;3.67;;;;;;;18.21;65.72;101284.78;6003869;28;20035;-67
2023/07/08 04:54:31;;;;;;;5.55;3.35;;;;;;;17.90;66.76;101284.06;6003530;28;20109;-67
2023/07/08 04:57:27;;;;;;;7.17;3.53;;;;;;;18.56;64.86;101272.56;6006874;28;20126;-67
2023/07/08 05:00:23;;;;;;;5.13;3.47;;;;;;;18.74;64.04;101276.56;6005898;28;20406;-66
2023/07/08 05:03:18;;;;;;;7.15;3.97;;;;;;;17.89;66.41;101264.44;6003546;28;20031;-66
2023/07/08 05:06:14;;;;;;;6.13;3.70;;;;;;;17.94;67.73;101278.13;6002247;28;20068;-66
2023/07/08 05:09:09;;;;;;;4.90;3.17;;;;;;;18.45;66.10;101265.78;6003720;28;20031;-66
2023/07/08 05:12:06;;;;;;;5.30;3.33;;;;;;;18.54;65.32;101277.28;6003977;28;20077;-65
2023/07/08 05:15:01;;;;;;;7.68;3.97;;;;;;;18.21;66.09;101274.03;6002803;28;20622;-66
2023/07/08 05:17:56;;;;;;;5.57;3.80;;;;;;;18.39;66.54;101286.16;6003447;28;20038;-65
2023/07/08 05:20:52;;;;;;;5.55;3.58;;;;;;;18.35;67.55;101287.50;6014343;28;20058;-65
2023/07/08 05:23:51;;;;;;;8.23;3.30;;;;;;;19.07;64.05;101281.56;6010345;28;20034;-67
2023/07/08 05:26:46;;;;;;;8.90;3.83;;;;;;;19.63;61.69;101261.13;6003149;28;20117;-67
2023/07/08 05:29:43;;;;;;;8.63;3.60;;;;;;;19.36;63.50;101259.97;6003964;28;20459;-66
2023/07/08 05:32:38;;;;;;;8.43;3.50;;;;;;;19.53;63.29;101277.59;6003257;28;20030;-67
2023/07/08 05:35:33;;;;;;;6.43;3.77;;;;;;;19.84;60.02;101270.03;6002487;28;20378;-67
2023/07/08 05:38:28;;;;;;;5.77;3.00;;;;;;;19.80;60.32;101268.75;6003187;28;20463;-67
2023/07/08 05:41:24;;;;;;;5.50;3.37;;;;;;;20.46;58.69;101285.53;6009279;28;20027;-67
2023/07/08 05:44:19;;;;;;;6.03;3.33;;;;;;;20.25;59.11;101280.19;6003201;28;20038;-67
2023/07/08 05:47:15;;;;;;;6.37;2.90;;;;;;;20.76;58.56;101292.38;6004364;28;20270;-67
2023/07/08 05:50:10;;;;;;;6.45;3.40;;;;;;;20.77;57.61;101289.44;6002689;28;20042;-67
2023/07/08 05:53:05;;;;;;;6.80;3.17;;;;;;;20.89;57.27;101270.84;6002903;28;20052;-67
2023/07/08 05:56:02;;;;;;;4.90;3.50;;;;;;;21.05;56.71;101275.91;6003550;28;20117;-67
2023/07/08 05:58:58;;;;;;;8.13;3.75;;;;;;;21.70;54.62;101277.19;6002819;28;20502;-67
2023/07/08 06:01:53;;;;;;;6.20;3.53;;;;;;;21.53;54.38;101267.81;6006339;28;20032;-66
2023/07/08 06:04:48;;;;;;;7.20;3.53;;;;;;;21.05;54.55;101267.00;6002087;28;20165;-67
2023/07/08 06:07:44;;;;;;;7.45;3.40;;;;;;;21.02;56.47;101287.09;6002779;28;20030;-67
2023/07/08 06:10:43;;;;;;;5.05;3.50;;;;;;;21.50;55.15;101285.25;6002442;28;20035;-66
2023/07/08 06:13:39;;;;;;;6.78;3.30;;;;;;;21.94;53.56;101268.53;6002119;28;20114;-66
2023/07/08 06:16:34;;;;;;;5.57;3.23;;;;;;;22.31;52.94;101269.81;6002517;28;20042;-66
2023/07/08 06:19:30;;;;;;;5.43;3.70;;;;;;;21.79;54.13;101281.38;6003645;28;20023;-65
2023/07/08 06:22:25;;;;;;;5.40;3.70;;;;;;;22.43;53.42;101281.63;6002566;28;20027;-66
2023/07/08 06:25:20;;;;;;;7.07;3.90;;;;;;;22.41;51.77;101289.97;6001826;28;20266;-67
2023/07/08 06:28:16;;;;;;;5.07;3.50;;;;;;;22.32;52.75;101279.56;6008716;28;20073;-66
2023/07/08 06:31:11;;;;;;;5.40;3.17;;;;;;;23.58;50.40;101277.16;6002707;28;20035;-66
2023/07/08 06:34:06;;;;;;;8.60;3.47;;;;;;;23.08;50.59;101267.13;6005187;28;20278;-66
2023/07/08 06:37:02;;;;;;;4.75;3.13;;;;;;;22.97;51.35;101265.09;6004568;28;20023;-66
2023/07/08 06:39:57;;;;;;;5.13;3.47;;;;;;;23.62;50.24;101266.69;6010495;28;20038;-66
2023/07/08 06:42:52;;;;;;;5.40;3.60;;;;;;;22.93;51.50;101266.59;6007029;28;20086;-66
2023/07/08 06:45:48;;;;;;;9.23;3.43;;;;;;;22.65;54.05;101282.25;6006216;28;20273;-66
2023/07/08 06:48:43;;;;;;;5.90;3.43;;;;;;;23.34;52.07;101264.34;6006757;28;20035;-66
2023/07/08 06:51:39;;;;;;;5.63;3.33;;;;;;;23.92;49.46;101259.59;6006794;28;20034;-66
2023/07/08 06:54:34;;;;;;;4.57;3.20;;;;;;;24.14;49.62;101274.47;6006444;28;20186;-66
2023/07/08 06:57:30;;;;;;;7.40;3.70;;;;;;;23.90;50.60;101272.56;6006533;28;20438;-66
2023/07/08 07:00:25;;;;;;;5.60;3.70;;;;;;;24.42;48.57;101275.91;6006634;28;20038;-68
2023/07/08 07:03:20;;;;;;;4.90;3.63;;;;;;;24.43;48.32;101281.13;6005730;28;20119;-66
2023/07/08 07:06:16;;;;;;;6.13;3.23;;;;;;;24.85;47.83;101276.75;6006597;28;20023;-67
2023/07/08 07:09:12;;;;;;;5.88;3.13;;;;;;;25.61;45.49;101273.50;6006427;28;20045;-66
2023/07/08 07:12:07;;;;;;;6.23;3.53;;;;;;;24.72;47.20;101276.84;6009596;28;20030;-66
2023/07/08 07:15:04;;;;;;;7.50;3.55;;;;;;;24.78;47.15;101282.22;6005350;28;20019;-67
2023/07/08 07:17:59;;;;;;;8.15;4.03;;;;;;;25.23;45.40;101271.06;6007090;28;20046;-66
2023/07/08 07:20:55;;;;;;;5.20;3.50;;;;;;;25.32;45.84;101270.53;6006077;28;20038;-66
2023/07/08 07:23:50;;;;;;;4.75;3.08;;;;;;;25.11;46.71;101272.91;6011095;28;20030;-66
2023/07/08 07:26:46;;;;;;;7.53;3.30;;;;;;;25.28;46.16;101269.31;6013710;28;20026;-66
2023/07/08 07:29:47;;;;;;;6.93;3.43;;;;;;;24.71;48.59;101267.03;6018124;28;20288;-66
2023/07/08 07:32:43;;;;;;;5.25;4.00;;;;;;;25.45;46.42;101275.78;6005630;28;20383;-66
2023/07/08 07:35:43;;;;;;;7.03;3.47;;;;;;;24.95;46.87;101276.22;6005268;28;20041;-67
2023/07/08 07:38:38;;;;;;;6.50;3.33;;;;;;;24.79;48.20;101264.06;6005497;28;20266;-67
2023/07/08 07:41:33;;;;;;;9.17;4.20;;;;;;;25.27;46.12;101264.13;6005675;28;20393;-67
2023/07/08 07:44:28;;;;;;;7.40;3.60;;;;;;;26.10;44.89;101269.59;6014837;28;20074;-67
2023/07/08 07:47:24;;;;;;;4.67;3.07;;;;;;;25.85;45.23;101276.06;6005655;28;20073;-66
2023/07/08 07:50:19;;;;;;;7.77;3.83;;;;;;;25.74;45.22;101267.88;6006421;28;20081;-67
2023/07/08 07:53:14;;;;;;;5.33;3.70;;;;;;;25.62;45.76;101269.72;6007586;28;20374;-67
2023/07/08 07:56:10;;;;;;;4.87;3.33;;;;;;;25.67;45.15;101284.28;6008132;28;20039;-67
2023/07/08 07:59:05;;;;;;;9.33;3.77;;;;;;;25.91;45.31;101272.41;6009370;28;20613;-67
2023/07/08 08:02:00;;;;;;;5.50;3.30;;;;;;;26.28;44.39;101270.34;6035376;28;20031;-67
2023/07/08 08:04:56;;;;;;;6.90;4.63;;;;;;;26.52;44.11;101260.34;6008105;28;20037;-67
2023/07/08 08:07:51;;;;;;;6.80;4.00;;;;;;;26.40;44.84;101267.66;6004693;28;20415;-67
2023/07/08 08:10:46;;;;;;;7.07;4.20;;;;;;;26.50;43.04;101278.75;6004971;28;20039;-67
2023/07/08 08:13:41;;;;;;;6.23;3.67;;;;;;;26.37;43.20;101270.84;6004153;28;20033;-67
2023/07/08 08:16:37;;;;;;;5.40;3.60;;;;;;;26.71;43.86;101267.28;6006329;28;20046;-67
2023/07/08 08:19:32;;;;;;;6.07;3.23;;;;;;;26.39;43.57;101266.03;6004973;28;20262;-67
2023/07/08 08:22:28;;;;;;;5.07;3.30;;;;;;;26.70;44.38;101267.50;6004439;28;20411;-67
2023/07/08 08:25:24;;;;;;;6.83;3.37;;;;;;;26.70;43.73;101257.47;6003767;28;20038;-67
2023/07/08 08:28:19;;;;;;;5.72;3.35;;;;;;;27.22;42.66;101254.75;6004390;28;20033;-67
2023/07/08 08:31:15;;;;;;;7.37;3.37;;;;;;;27.15;42.11;101255.72;6004352;28;20038;-67
2023/07/08 08:34:10;;;;;;;6.53;3.87;;;;;;;27.06;42.05;101261.81;6006914;28;20383;-67
2023/07/08 08:37:05;;;;;;;4.93;3.07;;;;;;;27.43;41.72;101263.13;6003959;28;20085;-67
2023/07/08 08:40:00;;;;;;;6.20;3.37;;;;;;;27.34;42.99;101278.16;6003935;28;20030;-66
2023/07/08 08:43:05;;;;;;;5.68;3.85;;;;;;;27.73;41.09;101262.84;6003664;28;20422;-67
2023/07/08 08:46:20;;;;;;;9.20;3.80;;;;;;;28.17;39.56;101274.81;6002047;28;20526;-66
2023/07/08 08:49:24;;;;;;;7.00;3.53;;;;;;;27.88;40.87;101281.41;6002853;28;20053;-67
2023/07/08 08:52:20;;;;;;;5.80;3.58;;;;;;;28.20;39.40;101280.63;5999621;28;20518;-67
2023/07/08 08:55:16;;;;;;;6.85;3.63;;;;;;;28.30;39.06;101267.13;6001839;28;20041;-67
2023/07/08 08:58:35;;;;;;;7.32;3.20;;;;;;;28.81;38.35;101281.53;6002065;28;20038;-67
2023/07/08 09:01:31;;;;;;;7.13;3.13;;;;;;;28.35;38.93;101266.38;6002464;28;20072;-67
2023/07/08 09:04:33;;;;;;;5.47;3.20;;;;;;;28.47;39.04;101258.94;6022949;28;20472;-67
2023/07/08 09:07:29;;;;;;;6.72;3.90;;;;;;;28.58;39.98;101262.63;6003582;28;20382;-67
2023/07/08 09:10:48;;;;;;;5.10;3.13;;;;;;;28.67;37.59;101270.16;6003834;28;20069;-67
2023/07/08 09:13:43;;;;;;;11.75;3.67;;;;;;;28.74;38.86;101253.59;6008272;28;20045;-67
2023/07/08 09:16:52;;;;;;;5.90;3.40;;;;;;;28.91;39.27;101266.16;6014074;28;20045;-68
2023/07/08 09:20:00;;;;;;;4.65;3.08;;;;;;;29.05;37.91;101250.19;6002707;28;20317;-67
2023/07/08 09:23:21;;;;;;;5.97;3.30;;;;;;;29.36;36.30;101262.31;6002583;28;20038;-67
2023/07/08 09:26:19;;;;;;;7.60;3.42;;;;;;;29.19;35.67;101256.91;6003183;28;20037;-67
2023/07/08 09:29:14;;;;;;;6.10;3.10;;;;;;;29.28;37.66;101254.56;6002671;28;20486;-67
2023/07/08 09:32:21;;;;;;;6.23;3.30;;;;;;;29.62;37.27;101249.75;6003947;28;20026;-67
2023/07/08 09:35:41;;;;;;;4.82;3.08;;;;;;;30.11;35.58;101254.06;6001914;28;20030;-68
2023/07/08 09:38:36;;;;;;;5.70;3.13;;;;;;;29.80;36.00;101250.22;5996989;28;20043;-68
2023/07/08 09:41:35;;;;;;;5.47;3.50;;;;;;;30.11;36.30;101242.28;6003523;28;20038;-67
2023/07/08 09:44:33;;;;;;;7.05;3.20;;;;;;;30.42;34.03;101239.50;6001656;28;20062;-67
2023/07/08 09:47:33;;;;;;;5.32;3.58;;;;;;;29.64;34.57;101242.09;6001430;28;20086;-67
2023/07/08 09:50:31;;;;;;;8.38;3.47;;;;;;;29.62;35.14;101239.66;5999111;28;20042;-67
2023/07/08 09:53:27;;;;;;;8.02;3.75;;;;;;;29.61;35.61;101242.63;6001450;28;20119;-66
2023/07/08 09:56:22;;;;;;;5.57;3.08;;;;;;;29.81;35.68;101231.91;6002568;28;20037;-67
2023/07/08 09:59:19;;;;;;;5.00;3.10;;;;;;;29.85;34.86;101255.75;6002404;28;20034;-66
2023/07/08 10:02:35;;;;;;;6.97;3.28;;;;;;;30.12;34.88;101255.69;6001029;28;20030;-66
2023/07/08 10:05:35;;;;;;;7.07;3.25;;;;;;;30.14;34.71;101250.75;6001865;28;20089;-66
2023/07/08 10:08:39;;;;;;;5.95;3.33;;;;;;;30.51;34.29;101239.84;6000932;28;20034;-67
2023/07/08 10:11:39;;;;;;;6.38;3.50;;;;;;;30.43;34.01;101246.66;6000734;28;20474;-66
2023/07/08 10:14:39;;;;;;;6.53;2.85;;;;;;;30.50;35.73;101246.41;6022563;28;20105;-66
2023/07/08 10:17:38;;;;;;;4.18;3.00;;;;;;;30.66;34.08;101240.75;6005492;28;20034;-67
2023/07/08 10:20:45;;;;;;;6.32;3.25;;;;;;;30.53;33.38;101233.00;6006411;28;20035;-66
2023/07/08 10:24:09;;;;;;;4.43;2.80;;;;;;;30.88;32.68;101245.22;6003912;28;20455;-66
2023/07/08 10:27:29;;;;;;;4.63;3.13;;;;;;;31.01;32.66;101237.38;6019694;28;20380;-66
2023/07/08 10:30:27;;;;;;;6.78;3.30;;;;;;;30.97;31.79;101235.44;6005108;28;20037;-66
2023/07/08 10:33:39;;;;;;;5.38;2.90;;;;;;;30.70;33.08;101238.31;6005621;28;20026;-66
2023/07/08 10:36:47;;;;;;;6.10;3.30;;;;;;;30.85;32.19;101237.56;6021630;28;20453;-66
2023/07/08 10:39:52;;;;;;;4.70;2.90;;;;;;;31.05;31.61;101232.19;6007010;28;20058;-66
2023/07/08 10:43:18;;;;;;;7.10;3.20;;;;;;;31.10;31.88;101230.28;6006853;28;20069;-67
2023/07/08 10:46:25;;;;;;;6.20;3.20;;;;;;;31.32;32.08;101229.25;6007066;28;20031;-67
2023/07/08 10:49:49;;;;;;;4.95;3.00;;;;;;;31.60;30.96;101221.38;6021937;28;20034;-67
2023/07/08 10:53:03;;;;;;;5.57;3.17;;;;;;;31.47;28.54;101218.34;6005786;28;20045;-66
2023/07/08 10:56:20;;;;;;;6.38;3.03;;;;;;;30.99;29.36;101216.81;6004506;28;20034;-67
2023/07/08 10:59:38;;;;;;;4.80;3.40;;;;;;;31.48;28.93;101214.50;6006797;28;20359;-66
2023/07/08 11:02:52;;;;;;;;;;;;;;;31.29;28.97;101225.13;5991771;28;20477;-67
2023/07/08 11:06:03;;;;;;;5.30;2.70;;;;;;;31.49;28.91;101200.53;6014753;28;19924;-68
2023/07/08 11:09:01;;;;;;;4.72;2.78;;;;;;;31.89;28.10;101216.16;6020007;28;20034;-67
2023/07/08 11:12:01;;;;;;;6.55;3.00;;;;;;;31.53;27.54;101217.22;6005446;28;20477;-67
2023/07/08 11:15:08;;;;;;;6.00;3.20;;;;;;;31.35;27.55;101207.59;6015398;28;20474;-67
2023/07/08 11:18:14;;;;;;;5.60;2.90;;;;;;;31.00;27.22;101196.53;6012658;28;20505;-67
2023/07/08 11:21:20;;;;;;;6.55;2.92;;;;;;;31.56;28.11;101211.22;6017570;28;20601;-67
2023/07/08 11:24:29;;;;;;;5.43;3.20;;;;;;;31.60;27.17;101202.19;6005334;28;20038;-66
2023/07/08 11:27:37;;;;;;;6.13;3.20;;;;;;;31.59;26.56;101210.66;6005948;28;20030;-67
2023/07/08 11:30:34;;;;;;;5.53;3.25;;;;;;;31.45;26.12;101202.13;6006116;28;20043;-67
2023/07/08 11:33:31;;;;;;;7.38;3.10;;;;;;;31.46;26.01;101187.34;6005367;28;20114;-67
2023/07/08 11:36:27;;;;;;;7.15;3.78;;;;;;;31.25;26.64;101185.66;6008549;28;20383;-67
2023/07/08 11:39:39;;;;;;;6.70;3.20;;;;;;;31.39;24.39;101185.94;6013919;28;20038;-67
2023/07/08 11:42:39;;;;;;;5.82;2.95;;;;;;;32.26;25.69;101182.94;6005539;28;20031;-68
2023/07/08 11:45:38;;;;;;;5.65;3.25;;;;;;;31.93;24.67;101194.50;6003710;28;20621;-67
2023/07/08 11:48:43;;;;;;;6.80;3.13;;;;;;;31.87;24.20;101195.59;6005323;28;20109;-67
2023/07/08 11:51:42;;;;;;;5.78;3.25;;;;;;;31.62;24.38;101175.28;6005566;28;20455;-67
2023/07/08 11:54:38;;;;;;;;;;;;;;;32.05;23.72;101192.28;6006070;28;20035;-67
2023/07/08 11:57:40;;;;;;;7.13;3.77;;;;;;;31.86;23.93;101177.47;6005515;28;20250;-67
2023/07/08 12:00:36;;;;;;;6.22;3.83;;;;;;;31.92;22.41;101181.84;6003929;28;20054;-67
2023/07/08 12:03:36;;;;;;;6.32;3.60;;;;;;;32.48;22.72;101175.16;6004707;28;20375;-67
2023/07/08 12:06:32;;;;;;;6.72;3.70;;;;;;;33.49;22.59;101180.16;6005214;28;20054;-68
2023/07/08 12:09:30;;;;;;;6.28;3.13;;;;;;;33.85;21.16;101167.78;6005936;28;20109;-67
2023/07/08 12:12:36;;;;;;;6.65;3.65;;;;;;;32.93;21.25;101166.78;6003737;28;20109;-68
2023/07/08 12:15:32;;;;;;;7.05;3.53;;;;;;;32.79;22.09;101170.41;6007810;28;20506;-66
2023/07/08 12:18:32;;;;;;;6.75;3.67;;;;;;;33.38;21.50;101162.09;6004995;28;20106;-67
2023/07/08 12:21:28;;;;;;;6.45;3.55;;;;;;;33.02;21.90;101174.44;6005448;28;20027;-67
2023/07/08 12:24:26;;;;;;;10.17;3.73;;;;;;;33.11;21.74;101156.22;6004271;28;20045;-68
2023/07/08 12:27:21;;;;;;;6.75;4.13;;;;;;;33.55;21.52;101162.53;6008270;28;20058;-67
2023/07/08 12:30:17;;;;;;;5.00;3.07;;;;;;;33.41;22.54;101147.78;6003851;28;20041;-67
2023/07/08 12:33:20;;;;;;;5.53;3.67;;;;;;;33.45;21.83;101162.63;6004062;28;20297;-68
2023/07/08 12:36:22;;;;;;;5.72;3.60;;;;;;;34.05;22.80;101155.78;6003380;28;20038;-67
2023/07/08 12:39:17;;;;;;;6.75;3.30;;;;;;;33.75;20.41;101142.28;6003712;28;20077;-66
2023/07/08 12:42:14;;;;;;;8.25;3.78;;;;;;;32.96;21.95;101155.22;6002737;28;20030;-67
2023/07/08 12:45:21;;;;;;;6.13;3.70;;;;;;;32.78;22.53;101158.59;6007851;28;20029;-67
2023/07/08 12:48:16;;;;;;;5.88;3.65;;;;;;;32.82;22.84;101140.44;6003903;28;20026;-67
2023/07/08 12:51:17;;;;;;;7.80;3.65;;;;;;;32.62;22.17;101159.75;6003827;28;20538;-67
2023/07/08 12:54:13;;;;;;;6.30;3.25;;;;;;;32.95;22.29;101142.56;6003533;28;20030;-68
2023/07/08 12:57:08;;;;;;;5.28;3.38;;;;;;;33.72;22.03;101151.97;6003459;28;20117;-67
2023/07/08 13:00:05;;;;;;;6.60;3.30;;;;;;;34.32;22.27;101139.53;6003223;28;20124;-68
2023/07/08 13:03:07;;;;;;;6.10;3.75;;;;;;;34.23;22.27;101140.44;6005640;28;20138;-67
2023/07/08 13:06:03;;;;;;;5.65;3.78;;;;;;;34.16;22.21;101128.97;6004745;28;20473;-68
2023/07/08 13:09:08;;;;;;;5.35;3.17;;;;;;;34.51;21.26;101145.06;6020811;28;20062;-67
2023/07/08 13:12:13;;;;;;;6.85;3.85;;;;;;;33.94;21.29;101144.03;6003195;28;20042;-67
2023/07/08 13:15:16;;;;;;;5.93;3.80;;;;;;;33.53;22.19;101151.00;6010263;28;20418;-66
2023/07/08 13:18:15;;;;;;;7.38;3.85;;;;;;;33.68;22.20;101139.88;6006782;28;20039;-66
2023/07/08 13:21:15;;;;;;;6.40;3.80;;;;;;;34.14;21.96;101122.94;6004715;28;20037;-67
2023/07/08 13:24:13;;;;;;;7.22;4.22;;;;;;;33.81;22.89;101125.44;5994600;28;20422;-67
2023/07/08 13:27:24;;;;;;;6.97;3.80;;;;;;;34.33;23.21;101119.09;6003216;28;20451;-67
2023/07/08 13:30:21;;;;;;;5.75;3.47;;;;;;;34.18;21.89;101105.53;6004988;28;20510;-67
2023/07/08 13:33:17;;;;;;;6.60;3.53;;;;;;;34.09;22.28;101130.13;6010215;28;20058;-67
2023/07/08 13:36:13;;;;;;;6.97;3.47;;;;;;;34.34;21.34;101125.44;6002653;28;20037;-66
2023/07/08 13:39:15;;;;;;;6.07;3.92;;;;;;;34.25;21.56;101125.25;6007576;28;20056;-67
2023/07/08 13:42:11;;;;;;;8.73;3.40;;;;;;;33.81;21.73;101117.16;6010719;28;20026;-67
2023/07/08 13:45:14;;;;;;;6.28;3.90;;;;;;;33.70;21.38;101120.34;6003035;28;20366;-67
2023/07/08 13:48:11;;;;;;;6.45;3.75;;;;;;;34.63;21.01;101112.41;6001348;28;20045;-68
2023/07/08 13:51:19;;;;;;;7.05;4.53;;;;;;;33.66;21.64;101094.50;6002805;28;20366;-68
2023/07/08 13:54:19;;;;;;;7.68;4.13;;;;;;;34.21;21.63;101115.13;6000894;28;20100;-68